sensor_id;sensor_type;location;lat;lon;timestamp;P1;durP1;ratioP1;P2;durP2;ratioP2
51732;SDS011;39139;53.144;6.244;2024-02-26T00:02:14;30.08;;;20.67;;
51732;SDS011;39139;53.144;6.244;2024-02-26T00:04:40;29.00;;;19.70;;
51732;SDS011;39139;53.144;6.244;2024-02-26T00:07:05;33.38;;;19.63;;
51732;SDS011;39139;53.144;6.244;2024-02-26T00:09:31;33.50;;;20.50;;
51732;SDS011;39139;53.144;6.244;2024-02-26T00:12:00;32.03;;;20.05;;
51732;SDS011;39139;53.144;6.244;2024-02-26T00:14:26;30.63;;;20.65;;
51732;SDS011;39139;53.144;6.244;2024-02-26T00:16:52;34.85;;;22.75;;
51732;SDS011;39139;53.144;6.244;2024-02-26T00:19:17;32.75;;;21.70;;
51732;SDS011;39139;53.144;6.244;2024-02-26T00:21:43;35.40;;;21.30;;
51732;SDS011;39139;53.144;6.244;2024-02-26T00:24:08;27.23;;;19.88;;
51732;SDS011;39139;53.144;6.244;2024-02-26T00:26:34;26.35;;;18.35;;
51732;SDS011;39139;53.144;6.244;2024-02-26T00:29:00;35.60;;;22.80;;
51732;SDS011;39139;53.144;6.244;2024-02-26T00:31:25;31.88;;;21.15;;
51732;SDS011;39139;53.144;6.244;2024-02-26T00:33:51;38.45;;;21.00;;
51732;SDS011;39139;53.144;6.244;2024-02-26T00:36:16;28.05;;;19.00;;
51732;SDS011;39139;53.144;6.244;2024-02-26T00:38:43;31.63;;;21.00;;
51732;SDS011;39139;53.144;6.244;2024-02-26T00:41:11;30.60;;;20.80;;
51732;SDS011;39139;53.144;6.244;2024-02-26T00:43:37;31.83;;;20.17;;
51732;SDS011;39139;53.144;6.244;2024-02-26T00:46:04;32.40;;;21.80;;
51732;SDS011;39139;53.144;6.244;2024-02-26T00:48:30;27.00;;;19.00;;
51732;SDS011;39139;53.144;6.244;2024-02-26T00:50:55;31.13;;;20.70;;
51732;SDS011;39139;53.144;6.244;2024-02-26T00:53:21;24.65;;;18.00;;
51732;SDS011;39139;53.144;6.244;2024-02-26T00:55:47;30.77;;;20.48;;
51732;SDS011;39139;53.144;6.244;2024-02-26T00:58:12;32.70;;;20.02;;
51732;SDS011;39139;53.144;6.244;2024-02-26T01:00:38;23.52;;;18.27;;
51732;SDS011;39139;53.144;6.244;2024-02-26T01:03:04;27.33;;;18.45;;
51732;SDS011;39139;53.144;6.244;2024-02-26T01:05:29;26.20;;;18.67;;
51732;SDS011;39139;53.144;6.244;2024-02-26T01:07:55;26.88;;;19.05;;
51732;SDS011;39139;53.144;6.244;2024-02-26T01:10:20;31.17;;;19.17;;
51732;SDS011;39139;53.144;6.244;2024-02-26T01:12:46;29.67;;;20.77;;
51732;SDS011;39139;53.144;6.244;2024-02-26T01:15:12;27.95;;;19.25;;
51732;SDS011;39139;53.144;6.244;2024-02-26T01:17:38;26.63;;;19.27;;
51732;SDS011;39139;53.144;6.244;2024-02-26T01:20:04;23.42;;;16.58;;
51732;SDS011;39139;53.144;6.244;2024-02-26T01:22:30;30.15;;;19.98;;
51732;SDS011;39139;53.144;6.244;2024-02-26T01:24:56;30.48;;;19.45;;
51732;SDS011;39139;53.144;6.244;2024-02-26T01:27:21;26.08;;;18.52;;
51732;SDS011;39139;53.144;6.244;2024-02-26T01:29:51;28.15;;;18.85;;
51732;SDS011;39139;53.144;6.244;2024-02-26T01:32:17;28.73;;;19.77;;
51732;SDS011;39139;53.144;6.244;2024-02-26T01:34:43;24.23;;;17.60;;
51732;SDS011;39139;53.144;6.244;2024-02-26T01:37:08;23.75;;;17.58;;
51732;SDS011;39139;53.144;6.244;2024-02-26T01:39:34;29.23;;;19.65;;
51732;SDS011;39139;53.144;6.244;2024-02-26T01:42:00;25.63;;;18.35;;
51732;SDS011;39139;53.144;6.244;2024-02-26T01:44:26;25.30;;;18.10;;
51732;SDS011;39139;53.144;6.244;2024-02-26T01:46:52;23.83;;;17.08;;
51732;SDS011;39139;53.144;6.244;2024-02-26T01:49:18;21.83;;;16.05;;
51732;SDS011;39139;53.144;6.244;2024-02-26T01:51:45;27.45;;;17.27;;
51732;SDS011;39139;53.144;6.244;2024-02-26T01:54:11;22.70;;;16.17;;
51732;SDS011;39139;53.144;6.244;2024-02-26T01:56:37;25.65;;;18.17;;
51732;SDS011;39139;53.144;6.244;2024-02-26T01:59:05;21.02;;;15.90;;
51732;SDS011;39139;53.144;6.244;2024-02-26T02:01:32;21.33;;;16.33;;
51732;SDS011;39139;53.144;6.244;2024-02-26T02:03:59;17.02;;;13.13;;
51732;SDS011;39139;53.144;6.244;2024-02-26T02:06:25;15.27;;;12.45;;
51732;SDS011;39139;53.144;6.244;2024-02-26T02:08:54;16.98;;;13.07;;
51732;SDS011;39139;53.144;6.244;2024-02-26T02:11:19;17.27;;;14.52;;
51732;SDS011;39139;53.144;6.244;2024-02-26T02:13:45;15.20;;;12.85;;
51732;SDS011;39139;53.144;6.244;2024-02-26T02:16:12;17.23;;;13.20;;
51732;SDS011;39139;53.144;6.244;2024-02-26T02:18:37;17.85;;;12.50;;
51732;SDS011;39139;53.144;6.244;2024-02-26T02:21:03;17.17;;;12.82;;
51732;SDS011;39139;53.144;6.244;2024-02-26T02:23:29;15.18;;;11.85;;
51732;SDS011;39139;53.144;6.244;2024-02-26T02:25:55;13.27;;;10.43;;
51732;SDS011;39139;53.144;6.244;2024-02-26T02:28:22;16.30;;;13.38;;
51732;SDS011;39139;53.144;6.244;2024-02-26T02:30:50;15.73;;;12.32;;
51732;SDS011;39139;53.144;6.244;2024-02-26T02:33:16;17.95;;;12.98;;
51732;SDS011;39139;53.144;6.244;2024-02-26T02:35:42;15.40;;;11.30;;
51732;SDS011;39139;53.144;6.244;2024-02-26T02:38:07;15.55;;;12.05;;
51732;SDS011;39139;53.144;6.244;2024-02-26T02:40:33;18.70;;;13.18;;
51732;SDS011;39139;53.144;6.244;2024-02-26T02:42:59;14.77;;;12.82;;
51732;SDS011;39139;53.144;6.244;2024-02-26T02:45:28;18.10;;;12.48;;
51732;SDS011;39139;53.144;6.244;2024-02-26T02:47:53;15.10;;;11.77;;
51732;SDS011;39139;53.144;6.244;2024-02-26T02:50:19;16.02;;;12.48;;
51732;SDS011;39139;53.144;6.244;2024-02-26T02:52:45;13.98;;;12.50;;
51732;SDS011;39139;53.144;6.244;2024-02-26T02:55:10;16.23;;;11.73;;
51732;SDS011;39139;53.144;6.244;2024-02-26T02:57:37;12.77;;;9.88;;
51732;SDS011;39139;53.144;6.244;2024-02-26T03:00:07;19.13;;;12.98;;
51732;SDS011;39139;53.144;6.244;2024-02-26T03:02:33;14.07;;;11.40;;
51732;SDS011;39139;53.144;6.244;2024-02-26T03:05:01;10.65;;;9.55;;
51732;SDS011;39139;53.144;6.244;2024-02-26T03:07:27;13.00;;;11.48;;
51732;SDS011;39139;53.144;6.244;2024-02-26T03:09:53;13.48;;;10.10;;
51732;SDS011;39139;53.144;6.244;2024-02-26T03:12:18;11.15;;;9.98;;
51732;SDS011;39139;53.144;6.244;2024-02-26T03:14:44;15.50;;;9.93;;
51732;SDS011;39139;53.144;6.244;2024-02-26T03:17:10;12.25;;;9.02;;
51732;SDS011;39139;53.144;6.244;2024-02-26T03:19:35;11.35;;;9.35;;
51732;SDS011;39139;53.144;6.244;2024-02-26T03:22:01;12.98;;;8.95;;
51732;SDS011;39139;53.144;6.244;2024-02-26T03:24:27;12.38;;;9.27;;
51732;SDS011;39139;53.144;6.244;2024-02-26T03:26:52;10.10;;;8.75;;
51732;SDS011;39139;53.144;6.244;2024-02-26T03:29:18;12.77;;;9.10;;
51732;SDS011;39139;53.144;6.244;2024-02-26T03:31:44;13.98;;;9.32;;
51732;SDS011;39139;53.144;6.244;2024-02-26T03:34:10;9.32;;;8.15;;
51732;SDS011;39139;53.144;6.244;2024-02-26T03:36:37;13.45;;;9.35;;
51732;SDS011;39139;53.144;6.244;2024-02-26T03:39:03;11.25;;;9.20;;
51732;SDS011;39139;53.144;6.244;2024-02-26T03:41:35;12.65;;;9.02;;
51732;SDS011;39139;53.144;6.244;2024-02-26T03:44:01;10.40;;;8.23;;
51732;SDS011;39139;53.144;6.244;2024-02-26T03:46:27;9.40;;;8.40;;
51732;SDS011;39139;53.144;6.244;2024-02-26T03:48:53;9.27;;;8.35;;
51732;SDS011;39139;53.144;6.244;2024-02-26T03:51:19;8.95;;;7.72;;
51732;SDS011;39139;53.144;6.244;2024-02-26T03:53:44;8.77;;;7.90;;
51732;SDS011;39139;53.144;6.244;2024-02-26T03:56:13;8.40;;;6.63;;
51732;SDS011;39139;53.144;6.244;2024-02-26T03:58:39;10.90;;;7.60;;
51732;SDS011;39139;53.144;6.244;2024-02-26T04:01:07;11.98;;;7.55;;
51732;SDS011;39139;53.144;6.244;2024-02-26T04:03:33;11.23;;;7.22;;
51732;SDS011;39139;53.144;6.244;2024-02-26T04:05:59;8.98;;;8.07;;
51732;SDS011;39139;53.144;6.244;2024-02-26T04:08:25;9.20;;;7.22;;
51732;SDS011;39139;53.144;6.244;2024-02-26T04:10:51;10.63;;;7.28;;
51732;SDS011;39139;53.144;6.244;2024-02-26T04:13:17;7.78;;;6.75;;
51732;SDS011;39139;53.144;6.244;2024-02-26T04:15:43;8.95;;;6.57;;
51732;SDS011;39139;53.144;6.244;2024-02-26T04:18:09;7.40;;;6.68;;
51732;SDS011;39139;53.144;6.244;2024-02-26T04:20:34;8.63;;;6.68;;
51732;SDS011;39139;53.144;6.244;2024-02-26T04:23:00;10.38;;;7.05;;
51732;SDS011;39139;53.144;6.244;2024-02-26T04:25:26;10.45;;;7.72;;
51732;SDS011;39139;53.144;6.244;2024-02-26T04:27:51;12.43;;;6.90;;
51732;SDS011;39139;53.144;6.244;2024-02-26T04:30:17;7.55;;;6.85;;
51732;SDS011;39139;53.144;6.244;2024-02-26T04:32:43;8.65;;;7.03;;
51732;SDS011;39139;53.144;6.244;2024-02-26T04:35:08;7.78;;;6.95;;
51732;SDS011;39139;53.144;6.244;2024-02-26T04:37:34;8.75;;;7.07;;
51732;SDS011;39139;53.144;6.244;2024-02-26T04:40:00;7.78;;;6.68;;
51732;SDS011;39139;53.144;6.244;2024-02-26T04:42:29;12.07;;;7.40;;
51732;SDS011;39139;53.144;6.244;2024-02-26T04:44:54;12.43;;;6.95;;
51732;SDS011;39139;53.144;6.244;2024-02-26T04:47:20;11.82;;;7.15;;
51732;SDS011;39139;53.144;6.244;2024-02-26T04:49:47;8.40;;;7.00;;
51732;SDS011;39139;53.144;6.244;2024-02-26T04:52:14;11.25;;;7.30;;
51732;SDS011;39139;53.144;6.244;2024-02-26T04:54:40;8.98;;;7.43;;
51732;SDS011;39139;53.144;6.244;2024-02-26T04:57:06;11.23;;;7.35;;
51732;SDS011;39139;53.144;6.244;2024-02-26T04:59:31;11.13;;;7.93;;
51732;SDS011;39139;53.144;6.244;2024-02-26T05:01:57;11.52;;;8.18;;
51732;SDS011;39139;53.144;6.244;2024-02-26T05:04:22;8.52;;;7.25;;
51732;SDS011;39139;53.144;6.244;2024-02-26T05:06:48;8.40;;;6.75;;
51732;SDS011;39139;53.144;6.244;2024-02-26T05:09:14;12.00;;;8.05;;
51732;SDS011;39139;53.144;6.244;2024-02-26T05:11:39;12.75;;;8.07;;
51732;SDS011;39139;53.144;6.244;2024-02-26T05:14:05;10.02;;;6.25;;
51732;SDS011;39139;53.144;6.244;2024-02-26T05:16:31;10.35;;;8.23;;
51732;SDS011;39139;53.144;6.244;2024-02-26T05:18:57;11.13;;;6.95;;
51732;SDS011;39139;53.144;6.244;2024-02-26T05:21:22;10.82;;;7.45;;
51732;SDS011;39139;53.144;6.244;2024-02-26T05:23:48;14.55;;;8.20;;
51732;SDS011;39139;53.144;6.244;2024-02-26T05:26:20;10.13;;;7.43;;
51732;SDS011;39139;53.144;6.244;2024-02-26T05:28:46;14.60;;;7.10;;
51732;SDS011;39139;53.144;6.244;2024-02-26T05:31:12;8.00;;;7.20;;
51732;SDS011;39139;53.144;6.244;2024-02-26T05:33:38;10.95;;;7.40;;
51732;SDS011;39139;53.144;6.244;2024-02-26T05:36:04;9.98;;;6.95;;
51732;SDS011;39139;53.144;6.244;2024-02-26T05:38:30;8.10;;;6.75;;
51732;SDS011;39139;53.144;6.244;2024-02-26T05:40:59;9.00;;;6.88;;
51732;SDS011;39139;53.144;6.244;2024-02-26T05:43:28;8.00;;;7.13;;
51732;SDS011;39139;53.144;6.244;2024-02-26T05:45:54;8.57;;;6.70;;
51732;SDS011;39139;53.144;6.244;2024-02-26T05:48:20;9.98;;;7.70;;
51732;SDS011;39139;53.144;6.244;2024-02-26T05:50:47;7.78;;;7.05;;
51732;SDS011;39139;53.144;6.244;2024-02-26T05:53:12;8.32;;;7.20;;
51732;SDS011;39139;53.144;6.244;2024-02-26T05:55:38;8.65;;;6.90;;
51732;SDS011;39139;53.144;6.244;2024-02-26T05:58:04;9.23;;;6.75;;
51732;SDS011;39139;53.144;6.244;2024-02-26T06:00:29;6.32;;;5.72;;
51732;SDS011;39139;53.144;6.244;2024-02-26T06:02:55;10.73;;;5.75;;
51732;SDS011;39139;53.144;6.244;2024-02-26T06:05:21;7.82;;;6.55;;
51732;SDS011;39139;53.144;6.244;2024-02-26T06:07:46;6.30;;;5.75;;
51732;SDS011;39139;53.144;6.244;2024-02-26T06:10:12;6.28;;;5.68;;
51732;SDS011;39139;53.144;6.244;2024-02-26T06:12:38;7.35;;;5.95;;
51732;SDS011;39139;53.144;6.244;2024-02-26T06:15:05;6.38;;;5.70;;
51732;SDS011;39139;53.144;6.244;2024-02-26T06:17:31;5.90;;;5.13;;
51732;SDS011;39139;53.144;6.244;2024-02-26T06:19:57;6.15;;;5.55;;
51732;SDS011;39139;53.144;6.244;2024-02-26T06:22:24;5.47;;;5.03;;
51732;SDS011;39139;53.144;6.244;2024-02-26T06:24:50;5.93;;;5.32;;
51732;SDS011;39139;53.144;6.244;2024-02-26T06:27:16;7.75;;;4.85;;
51732;SDS011;39139;53.144;6.244;2024-02-26T06:29:41;7.95;;;5.00;;
51732;SDS011;39139;53.144;6.244;2024-02-26T06:32:07;5.82;;;5.18;;
51732;SDS011;39139;53.144;6.244;2024-02-26T06:34:32;5.28;;;4.88;;
51732;SDS011;39139;53.144;6.244;2024-02-26T06:36:58;4.75;;;4.28;;
51732;SDS011;39139;53.144;6.244;2024-02-26T06:39:24;7.38;;;5.13;;
51732;SDS011;39139;53.144;6.244;2024-02-26T06:41:50;4.82;;;4.38;;
51732;SDS011;39139;53.144;6.244;2024-02-26T06:44:15;5.18;;;4.70;;
51732;SDS011;39139;53.144;6.244;2024-02-26T06:46:41;4.90;;;4.22;;
51732;SDS011;39139;53.144;6.244;2024-02-26T06:49:06;5.53;;;4.43;;
51732;SDS011;39139;53.144;6.244;2024-02-26T06:51:32;4.68;;;4.38;;
51732;SDS011;39139;53.144;6.244;2024-02-26T06:53:58;5.78;;;4.65;;
51732;SDS011;39139;53.144;6.244;2024-02-26T06:56:23;4.55;;;4.13;;
51732;SDS011;39139;53.144;6.244;2024-02-26T06:58:49;5.53;;;5.05;;
51732;SDS011;39139;53.144;6.244;2024-02-26T07:01:14;5.18;;;4.68;;
51732;SDS011;39139;53.144;6.244;2024-02-26T07:03:40;5.18;;;4.80;;
51732;SDS011;39139;53.144;6.244;2024-02-26T07:06:06;4.90;;;3.63;;
51732;SDS011;39139;53.144;6.244;2024-02-26T07:08:32;4.82;;;4.38;;
51732;SDS011;39139;53.144;6.244;2024-02-26T07:10:57;7.10;;;4.60;;
51732;SDS011;39139;53.144;6.244;2024-02-26T07:13:23;4.90;;;4.60;;
51732;SDS011;39139;53.144;6.244;2024-02-26T07:15:49;4.28;;;3.97;;
51732;SDS011;39139;53.144;6.244;2024-02-26T07:18:14;5.03;;;4.68;;
51732;SDS011;39139;53.144;6.244;2024-02-26T07:20:40;5.13;;;4.47;;
51732;SDS011;39139;53.144;6.244;2024-02-26T07:23:05;6.13;;;4.75;;
51732;SDS011;39139;53.144;6.244;2024-02-26T07:25:32;5.20;;;4.32;;
51732;SDS011;39139;53.144;6.244;2024-02-26T07:27:57;4.50;;;4.18;;
51732;SDS011;39139;53.144;6.244;2024-02-26T07:30:23;7.72;;;4.05;;
51732;SDS011;39139;53.144;6.244;2024-02-26T07:32:49;5.35;;;3.85;;
51732;SDS011;39139;53.144;6.244;2024-02-26T07:35:15;5.25;;;4.05;;
51732;SDS011;39139;53.144;6.244;2024-02-26T07:37:42;9.15;;;3.97;;
51732;SDS011;39139;53.144;6.244;2024-02-26T07:40:08;6.07;;;3.85;;
51732;SDS011;39139;53.144;6.244;2024-02-26T07:42:34;4.05;;;3.10;;
51732;SDS011;39139;53.144;6.244;2024-02-26T07:45:00;3.63;;;3.33;;
51732;SDS011;39139;53.144;6.244;2024-02-26T07:47:25;9.73;;;2.75;;
51732;SDS011;39139;53.144;6.244;2024-02-26T07:49:51;3.55;;;2.85;;
51732;SDS011;39139;53.144;6.244;2024-02-26T07:52:16;7.18;;;3.38;;
51732;SDS011;39139;53.144;6.244;2024-02-26T07:54:42;4.38;;;3.05;;
51732;SDS011;39139;53.144;6.244;2024-02-26T07:57:08;4.57;;;3.25;;
51732;SDS011;39139;53.144;6.244;2024-02-26T07:59:33;4.25;;;3.20;;
51732;SDS011;39139;53.144;6.244;2024-02-26T08:01:59;4.85;;;3.70;;
51732;SDS011;39139;53.144;6.244;2024-02-26T08:04:28;4.68;;;3.70;;
51732;SDS011;39139;53.144;6.244;2024-02-26T08:06:54;5.63;;;3.40;;
51732;SDS011;39139;53.144;6.244;2024-02-26T08:09:19;4.68;;;3.60;;
51732;SDS011;39139;53.144;6.244;2024-02-26T08:11:45;3.78;;;3.47;;
51732;SDS011;39139;53.144;6.244;2024-02-26T08:14:10;3.92;;;2.92;;
51732;SDS011;39139;53.144;6.244;2024-02-26T08:16:36;4.45;;;3.25;;
51732;SDS011;39139;53.144;6.244;2024-02-26T08:19:01;3.70;;;3.40;;
51732;SDS011;39139;53.144;6.244;2024-02-26T08:21:27;4.78;;;3.60;;
51732;SDS011;39139;53.144;6.244;2024-02-26T08:23:53;4.15;;;2.80;;
51732;SDS011;39139;53.144;6.244;2024-02-26T08:26:18;4.18;;;3.63;;
51732;SDS011;39139;53.144;6.244;2024-02-26T08:28:45;4.55;;;2.92;;
51732;SDS011;39139;53.144;6.244;2024-02-26T08:31:12;3.25;;;2.95;;
51732;SDS011;39139;53.144;6.244;2024-02-26T08:33:38;3.50;;;2.63;;
51732;SDS011;39139;53.144;6.244;2024-02-26T08:36:04;3.63;;;2.67;;
51732;SDS011;39139;53.144;6.244;2024-02-26T08:38:30;3.70;;;2.95;;
51732;SDS011;39139;53.144;6.244;2024-02-26T08:40:56;3.38;;;2.83;;
51732;SDS011;39139;53.144;6.244;2024-02-26T08:43:22;3.33;;;3.03;;
51732;SDS011;39139;53.144;6.244;2024-02-26T08:45:47;2.70;;;2.10;;
51732;SDS011;39139;53.144;6.244;2024-02-26T08:48:13;4.30;;;2.78;;
51732;SDS011;39139;53.144;6.244;2024-02-26T08:50:38;3.45;;;2.60;;
51732;SDS011;39139;53.144;6.244;2024-02-26T08:53:04;3.53;;;2.40;;
51732;SDS011;39139;53.144;6.244;2024-02-26T08:55:30;2.38;;;2.15;;
51732;SDS011;39139;53.144;6.244;2024-02-26T08:57:56;3.50;;;2.55;;
51732;SDS011;39139;53.144;6.244;2024-02-26T09:00:22;2.05;;;1.95;;
51732;SDS011;39139;53.144;6.244;2024-02-26T09:02:47;1.92;;;1.83;;
51732;SDS011;39139;53.144;6.244;2024-02-26T09:05:14;2.55;;;1.90;;
51732;SDS011;39139;53.144;6.244;2024-02-26T09:07:40;2.17;;;2.08;;
51732;SDS011;39139;53.144;6.244;2024-02-26T09:10:05;2.08;;;1.95;;
51732;SDS011;39139;53.144;6.244;2024-02-26T09:12:34;2.83;;;2.40;;
51732;SDS011;39139;53.144;6.244;2024-02-26T09:14:59;2.65;;;2.00;;
51732;SDS011;39139;53.144;6.244;2024-02-26T09:17:25;2.17;;;1.83;;
51732;SDS011;39139;53.144;6.244;2024-02-26T09:19:51;4.78;;;2.33;;
51732;SDS011;39139;53.144;6.244;2024-02-26T09:22:16;4.40;;;2.50;;
51732;SDS011;39139;53.144;6.244;2024-02-26T09:24:42;2.67;;;2.20;;
51732;SDS011;39139;53.144;6.244;2024-02-26T09:27:07;3.58;;;2.47;;
51732;SDS011;39139;53.144;6.244;2024-02-26T09:29:35;3.55;;;2.03;;
51732;SDS011;39139;53.144;6.244;2024-02-26T09:32:00;8.27;;;2.35;;
51732;SDS011;39139;53.144;6.244;2024-02-26T09:34:26;6.40;;;2.22;;
51732;SDS011;39139;53.144;6.244;2024-02-26T09:36:52;3.55;;;2.13;;
51732;SDS011;39139;53.144;6.244;2024-02-26T09:39:17;3.38;;;2.13;;
51732;SDS011;39139;53.144;6.244;2024-02-26T09:41:46;3.50;;;2.43;;
51732;SDS011;39139;53.144;6.244;2024-02-26T09:44:15;3.55;;;2.70;;
51732;SDS011;39139;53.144;6.244;2024-02-26T09:46:47;5.25;;;2.90;;
51732;SDS011;39139;53.144;6.244;2024-02-26T09:49:16;4.95;;;2.58;;
51732;SDS011;39139;53.144;6.244;2024-02-26T09:51:43;2.80;;;2.60;;
51732;SDS011;39139;53.144;6.244;2024-02-26T09:54:09;3.55;;;2.88;;
51732;SDS011;39139;53.144;6.244;2024-02-26T09:56:35;5.85;;;2.80;;
51732;SDS011;39139;53.144;6.244;2024-02-26T09:59:04;3.13;;;2.45;;
51732;SDS011;39139;53.144;6.244;2024-02-26T10:01:35;4.53;;;2.55;;
51732;SDS011;39139;53.144;6.244;2024-02-26T10:04:03;4.50;;;3.05;;
51732;SDS011;39139;53.144;6.244;2024-02-26T10:06:29;6.85;;;2.55;;
51732;SDS011;39139;53.144;6.244;2024-02-26T10:08:55;3.03;;;2.72;;
51732;SDS011;39139;53.144;6.244;2024-02-26T10:11:23;6.10;;;2.92;;
51732;SDS011;39139;53.144;6.244;2024-02-26T10:13:49;3.58;;;3.28;;
51732;SDS011;39139;53.144;6.244;2024-02-26T10:16:15;4.93;;;2.80;;
51732;SDS011;39139;53.144;6.244;2024-02-26T10:18:51;3.65;;;3.03;;
51732;SDS011;39139;53.144;6.244;2024-02-26T10:21:21;3.97;;;3.05;;
51732;SDS011;39139;53.144;6.244;2024-02-26T10:23:48;3.53;;;2.88;;
51732;SDS011;39139;53.144;6.244;2024-02-26T10:26:15;4.93;;;3.47;;
51732;SDS011;39139;53.144;6.244;2024-02-26T10:28:41;7.28;;;3.40;;
51732;SDS011;39139;53.144;6.244;2024-02-26T10:31:08;5.65;;;2.28;;
51732;SDS011;39139;53.144;6.244;2024-02-26T10:33:35;5.43;;;1.95;;
51732;SDS011;39139;53.144;6.244;2024-02-26T10:36:02;3.38;;;1.80;;
51732;SDS011;39139;53.144;6.244;2024-02-26T10:38:29;3.95;;;2.10;;
51732;SDS011;39139;53.144;6.244;2024-02-26T10:40:55;2.42;;;1.67;;
51732;SDS011;39139;53.144;6.244;2024-02-26T10:43:21;5.63;;;2.17;;
51732;SDS011;39139;53.144;6.244;2024-02-26T10:45:46;3.80;;;1.88;;
51732;SDS011;39139;53.144;6.244;2024-02-26T10:48:13;6.50;;;1.98;;
51732;SDS011;39139;53.144;6.244;2024-02-26T10:50:40;4.47;;;2.20;;
51732;SDS011;39139;53.144;6.244;2024-02-26T10:53:09;4.93;;;1.75;;
51732;SDS011;39139;53.144;6.244;2024-02-26T10:55:40;3.80;;;1.70;;
51732;SDS011;39139;53.144;6.244;2024-02-26T10:58:06;4.55;;;1.45;;
51732;SDS011;39139;53.144;6.244;2024-02-26T11:00:33;3.80;;;1.35;;
51732;SDS011;39139;53.144;6.244;2024-02-26T11:03:01;4.43;;;1.38;;
51732;SDS011;39139;53.144;6.244;2024-02-26T11:05:30;3.80;;;1.35;;
51732;SDS011;39139;53.144;6.244;2024-02-26T11:07:58;10.27;;;1.55;;
51732;SDS011;39139;53.144;6.244;2024-02-26T11:10:25;2.10;;;1.33;;
51732;SDS011;39139;53.144;6.244;2024-02-26T11:12:54;2.22;;;1.60;;
51732;SDS011;39139;53.144;6.244;2024-02-26T11:15:22;1.70;;;1.60;;
51732;SDS011;39139;53.144;6.244;2024-02-26T11:17:49;2.25;;;1.85;;
51732;SDS011;39139;53.144;6.244;2024-02-26T11:20:17;3.92;;;2.33;;
51732;SDS011;39139;53.144;6.244;2024-02-26T11:22:45;2.20;;;1.98;;
51732;SDS011;39139;53.144;6.244;2024-02-26T11:25:10;2.75;;;2.22;;
51732;SDS011;39139;53.144;6.244;2024-02-26T11:27:42;4.63;;;2.30;;
51732;SDS011;39139;53.144;6.244;2024-02-26T11:30:12;4.32;;;3.05;;
51732;SDS011;39139;53.144;6.244;2024-02-26T11:32:43;4.80;;;3.05;;
51732;SDS011;39139;53.144;6.244;2024-02-26T11:35:10;3.80;;;3.38;;
51732;SDS011;39139;53.144;6.244;2024-02-26T11:37:38;5.47;;;3.08;;
51732;SDS011;39139;53.144;6.244;2024-02-26T11:40:04;3.63;;;3.28;;
51732;SDS011;39139;53.144;6.244;2024-02-26T11:42:42;3.50;;;3.20;;
51732;SDS011;39139;53.144;6.244;2024-02-26T11:48:23;3.50;;;3.08;;
51732;SDS011;39139;53.144;6.244;2024-02-26T11:53:27;5.80;;;3.20;;
51732;SDS011;39139;53.144;6.244;2024-02-26T11:59:04;4.05;;;3.65;;
51732;SDS011;39139;53.144;6.244;2024-02-26T12:01:37;7.97;;;4.20;;
51732;SDS011;39139;53.144;6.244;2024-02-26T12:04:29;6.20;;;3.80;;
51732;SDS011;39139;53.144;6.244;2024-02-26T12:06:57;4.22;;;3.75;;
51732;SDS011;39139;53.144;6.244;2024-02-26T12:09:32;4.07;;;3.78;;
51732;SDS011;39139;53.144;6.244;2024-02-26T12:12:04;10.30;;;3.75;;
51732;SDS011;39139;53.144;6.244;2024-02-26T12:14:38;6.90;;;4.38;;
51732;SDS011;39139;53.144;6.244;2024-02-26T12:17:23;4.55;;;4.25;;
51732;SDS011;39139;53.144;6.244;2024-02-26T12:19:51;6.20;;;4.18;;
51732;SDS011;39139;53.144;6.244;2024-02-26T12:22:18;6.82;;;4.47;;
51732;SDS011;39139;53.144;6.244;2024-02-26T12:24:44;9.70;;;5.30;;
51732;SDS011;39139;53.144;6.244;2024-02-26T12:27:10;6.80;;;4.38;;
51732;SDS011;39139;53.144;6.244;2024-02-26T12:29:36;5.85;;;5.03;;
51732;SDS011;39139;53.144;6.244;2024-02-26T12:32:02;5.03;;;4.57;;
51732;SDS011;39139;53.144;6.244;2024-02-26T12:34:29;6.90;;;4.38;;
51732;SDS011;39139;53.144;6.244;2024-02-26T12:36:54;5.20;;;4.57;;
51732;SDS011;39139;53.144;6.244;2024-02-26T12:39:20;7.57;;;4.53;;
51732;SDS011;39139;53.144;6.244;2024-02-26T12:41:46;8.23;;;5.60;;
51732;SDS011;39139;53.144;6.244;2024-02-26T12:44:17;6.18;;;5.00;;
51732;SDS011;39139;53.144;6.244;2024-02-26T12:46:43;7.78;;;6.38;;
51732;SDS011;39139;53.144;6.244;2024-02-26T12:49:14;11.32;;;7.90;;
51732;SDS011;39139;53.144;6.244;2024-02-26T12:51:42;12.10;;;7.13;;
51732;SDS011;39139;53.144;6.244;2024-02-26T12:54:09;7.63;;;4.90;;
51732;SDS011;39139;53.144;6.244;2024-02-26T12:56:35;9.05;;;5.43;;
51732;SDS011;39139;53.144;6.244;2024-02-26T12:59:01;8.13;;;5.10;;
51732;SDS011;39139;53.144;6.244;2024-02-26T13:01:28;6.68;;;5.72;;
51732;SDS011;39139;53.144;6.244;2024-02-26T13:03:55;6.53;;;5.82;;
51732;SDS011;39139;53.144;6.244;2024-02-26T13:06:21;7.25;;;5.35;;
51732;SDS011;39139;53.144;6.244;2024-02-26T13:08:47;7.05;;;5.00;;
51732;SDS011;39139;53.144;6.244;2024-02-26T13:11:13;7.30;;;4.05;;
51732;SDS011;39139;53.144;6.244;2024-02-26T13:13:39;7.78;;;4.90;;
51732;SDS011;39139;53.144;6.244;2024-02-26T13:16:05;7.60;;;4.70;;
51732;SDS011;39139;53.144;6.244;2024-02-26T13:18:33;8.30;;;4.65;;
51732;SDS011;39139;53.144;6.244;2024-02-26T13:21:07;6.93;;;4.88;;
51732;SDS011;39139;53.144;6.244;2024-02-26T13:23:34;6.05;;;4.20;;
51732;SDS011;39139;53.144;6.244;2024-02-26T13:25:59;8.43;;;4.18;;
51732;SDS011;39139;53.144;6.244;2024-02-26T13:28:25;6.78;;;4.85;;
51732;SDS011;39139;53.144;6.244;2024-02-26T13:30:56;4.97;;;4.47;;
51732;SDS011;39139;53.144;6.244;2024-02-26T13:33:26;5.28;;;3.88;;
51732;SDS011;39139;53.144;6.244;2024-02-26T13:35:53;5.45;;;3.90;;
51732;SDS011;39139;53.144;6.244;2024-02-26T13:38:20;6.95;;;4.38;;
51732;SDS011;39139;53.144;6.244;2024-02-26T13:40:46;5.63;;;4.28;;
51732;SDS011;39139;53.144;6.244;2024-02-26T13:43:11;7.50;;;4.57;;
51732;SDS011;39139;53.144;6.244;2024-02-26T13:45:37;5.93;;;4.53;;
51732;SDS011;39139;53.144;6.244;2024-02-26T13:48:04;6.60;;;3.90;;
51732;SDS011;39139;53.144;6.244;2024-02-26T13:50:32;5.55;;;4.65;;
51732;SDS011;39139;53.144;6.244;2024-02-26T13:52:58;6.68;;;5.32;;
51732;SDS011;39139;53.144;6.244;2024-02-26T13:55:27;5.60;;;5.10;;
51732;SDS011;39139;53.144;6.244;2024-02-26T13:57:55;10.07;;;5.43;;
51732;SDS011;39139;53.144;6.244;2024-02-26T14:00:21;7.82;;;5.00;;
51732;SDS011;39139;53.144;6.244;2024-02-26T14:02:47;6.13;;;5.03;;
51732;SDS011;39139;53.144;6.244;2024-02-26T14:05:13;8.80;;;5.45;;
51732;SDS011;39139;53.144;6.244;2024-02-26T14:07:41;12.98;;;5.82;;
51732;SDS011;39139;53.144;6.244;2024-02-26T14:10:07;7.50;;;4.15;;
51732;SDS011;39139;53.144;6.244;2024-02-26T14:12:36;11.32;;;5.90;;
51732;SDS011;39139;53.144;6.244;2024-02-26T14:15:02;6.45;;;5.20;;
51732;SDS011;39139;53.144;6.244;2024-02-26T14:17:30;6.07;;;4.85;;
51732;SDS011;39139;53.144;6.244;2024-02-26T14:19:55;6.53;;;5.00;;
51732;SDS011;39139;53.144;6.244;2024-02-26T14:22:21;7.88;;;6.00;;
51732;SDS011;39139;53.144;6.244;2024-02-26T14:24:47;8.40;;;6.25;;
51732;SDS011;39139;53.144;6.244;2024-02-26T14:27:13;10.15;;;6.28;;
51732;SDS011;39139;53.144;6.244;2024-02-26T14:29:45;6.20;;;5.38;;
51732;SDS011;39139;53.144;6.244;2024-02-26T14:32:11;10.07;;;5.97;;
51732;SDS011;39139;53.144;6.244;2024-02-26T14:34:39;8.18;;;4.88;;
51732;SDS011;39139;53.144;6.244;2024-02-26T14:37:05;7.80;;;4.88;;
51732;SDS011;39139;53.144;6.244;2024-02-26T14:39:31;5.07;;;4.68;;
51732;SDS011;39139;53.144;6.244;2024-02-26T14:41:57;10.20;;;5.15;;
51732;SDS011;39139;53.144;6.244;2024-02-26T14:44:24;5.93;;;5.28;;
51732;SDS011;39139;53.144;6.244;2024-02-26T14:46:50;9.35;;;5.93;;